createdAt,value
2018-09-18T00:00:09.728Z,99.90
2018-09-18T00:02:38.781Z,99.90
2018-09-18T00:05:07.809Z,99.90
2018-09-18T00:07:36.839Z,99.90
2018-09-18T00:10:06.370Z,99.90
2018-09-18T00:12:35.334Z,99.90
2018-09-18T00:15:04.730Z,99.90
2018-09-18T00:19:53.917Z,99.90
2018-09-18T00:22:22.884Z,99.90
2018-09-18T00:24:52.710Z,99.90
2018-09-18T00:27:28.422Z,99.90
2018-09-18T00:29:57.453Z,99.90
2018-09-18T00:32:26.505Z,99.90
2018-09-18T00:34:55.470Z,99.90
2018-09-18T00:37:24.550Z,99.90
2018-09-18T00:39:53.530Z,99.90
2018-09-18T00:42:22.634Z,99.90
2018-09-18T00:44:51.611Z,99.90
2018-09-18T00:47:20.690Z,99.90
2018-09-18T00:49:49.688Z,99.90
2018-09-18T00:52:18.662Z,99.90
2018-09-18T00:54:47.647Z,99.90
2018-09-18T00:57:16.791Z,99.90
2018-09-18T00:59:45.764Z,99.90
2018-09-18T01:02:14.743Z,99.90
2018-09-18T01:04:43.981Z,99.90
2018-09-18T01:07:12.967Z,99.90
2018-09-18T01:09:41.938Z,99.90
2018-09-18T01:12:11.021Z,99.90
2018-09-18T01:14:40.258Z,99.90
2018-09-18T01:17:09.263Z,99.90
2018-09-18T01:19:38.240Z,99.90
2018-09-18T01:22:07.301Z,99.90
2018-09-18T01:24:36.299Z,99.90
2018-09-18T01:27:05.262Z,99.90
2018-09-18T01:29:34.274Z,99.90
2018-09-18T01:32:03.264Z,99.90
2018-09-18T01:34:32.235Z,99.90
2018-09-18T01:37:01.223Z,99.90
2018-09-18T01:39:30.201Z,99.90
2018-09-18T01:41:59.241Z,99.90
2018-09-18T01:44:28.219Z,99.90
2018-09-18T01:46:57.216Z,99.90
2018-09-18T01:49:26.205Z,99.90
2018-09-18T01:51:55.216Z,99.90
2018-09-18T01:54:24.238Z,99.90
2018-09-18T01:56:53.263Z,99.90
2018-09-18T01:59:22.438Z,99.90
2018-09-18T02:01:51.462Z,99.90
2018-09-18T02:04:20.435Z,99.90
2018-09-18T02:06:49.484Z,99.90
2018-09-18T02:09:18.518Z,99.90
2018-09-18T02:11:47.503Z,99.90
2018-09-18T02:14:16.470Z,99.90
2018-09-18T02:16:45.456Z,99.90
2018-09-18T02:19:14.417Z,99.90
2018-09-18T02:21:43.390Z,99.90
2018-09-18T02:24:12.371Z,99.90
2018-09-18T02:26:41.371Z,99.90
2018-09-18T02:29:10.349Z,99.90
2018-09-18T02:31:39.402Z,99.90
2018-09-18T02:34:08.393Z,99.90
2018-09-18T02:36:37.422Z,99.90
2018-09-18T02:39:08.689Z,99.90
2018-09-18T02:41:37.810Z,99.90
2018-09-18T02:44:06.818Z,99.90
2018-09-18T02:46:35.807Z,99.90
2018-09-18T02:49:04.850Z,99.90
2018-09-18T02:51:33.878Z,99.90
2018-09-18T02:54:02.887Z,99.90
2018-09-18T02:56:31.861Z,99.90
2018-09-18T02:59:00.891Z,99.90
2018-09-18T03:01:29.882Z,99.90
2018-09-18T03:03:58.877Z,99.90
2018-09-18T03:06:27.850Z,99.90
2018-09-18T03:08:56.918Z,99.90
2018-09-18T03:11:26.077Z,99.90
2018-09-18T03:13:54.986Z,99.90
2018-09-18T03:16:24.007Z,99.90
2018-09-18T03:18:52.981Z,99.90
2018-09-18T03:21:21.956Z,99.90
2018-09-18T03:23:50.986Z,99.90
2018-09-18T03:26:19.967Z,99.90
2018-09-18T03:28:48.930Z,99.90
2018-09-18T03:31:17.905Z,99.90
2018-09-18T03:33:46.882Z,99.90
2018-09-18T03:36:15.953Z,99.90
2018-09-18T03:38:44.881Z,99.90
2018-09-18T03:41:13.888Z,99.90
2018-09-18T03:43:42.934Z,99.90
2018-09-18T03:46:11.901Z,99.90
2018-09-18T03:48:40.907Z,99.90
2018-09-18T03:51:09.930Z,99.90
2018-09-18T03:53:38.930Z,99.90
2018-09-18T03:56:08.072Z,99.90
2018-09-18T03:58:37.059Z,99.90
2018-09-18T04:01:06.246Z,99.90
2018-09-18T04:03:35.433Z,99.90
2018-09-18T04:06:04.419Z,99.90
2018-09-18T04:08:33.439Z,99.90
2018-09-18T04:11:02.507Z,99.90
2018-09-18T04:13:31.546Z,99.90
2018-09-18T04:16:00.539Z,99.90
2018-09-18T04:18:29.549Z,99.90
2018-09-18T04:20:58.567Z,99.90
2018-09-18T04:23:27.598Z,99.90
2018-09-18T04:25:56.922Z,99.90
2018-09-18T04:28:26.029Z,99.90
2018-09-18T04:30:55.070Z,99.90
2018-09-18T04:33:24.059Z,99.90
2018-09-18T04:35:53.064Z,99.90
2018-09-18T04:38:22.072Z,99.90
2018-09-18T04:40:51.121Z,99.90
2018-09-18T04:43:20.095Z,99.90
2018-09-18T04:45:49.092Z,99.90
2018-09-18T04:48:18.081Z,99.90
2018-09-18T04:50:47.130Z,99.90
2018-09-18T04:53:16.097Z,99.90
2018-09-18T04:55:45.134Z,99.90
2018-09-18T04:58:14.090Z,99.90
2018-09-18T05:00:43.201Z,99.90
2018-09-18T05:03:12.346Z,99.90
2018-09-18T05:05:41.343Z,99.90
2018-09-18T05:08:10.342Z,99.90
2018-09-18T05:10:39.871Z,99.90
2018-09-18T05:13:09.107Z,99.90
2018-09-18T05:15:38.173Z,99.90
2018-09-18T05:18:07.260Z,99.90
2018-09-18T05:20:36.290Z,99.90
2018-09-18T05:23:05.291Z,99.90
2018-09-18T05:25:34.293Z,99.90
2018-09-18T05:28:04.042Z,99.90
2018-09-18T05:30:33.039Z,99.90
2018-09-18T05:33:02.053Z,99.90
2018-09-18T05:35:31.094Z,99.90
2018-09-18T05:38:00.115Z,99.90
2018-09-18T05:40:29.146Z,99.90
2018-09-18T05:42:58.298Z,99.90
2018-09-18T05:45:27.379Z,99.90
2018-09-18T05:47:56.380Z,99.90
2018-09-18T05:50:25.389Z,99.90
2018-09-18T05:52:54.511Z,99.90
2018-09-18T05:55:23.478Z,99.90
2018-09-18T05:57:52.494Z,99.90
2018-09-18T06:00:21.615Z,99.90
2018-09-18T06:02:50.641Z,99.90
2018-09-18T06:05:19.822Z,99.90
2018-09-18T06:07:48.846Z,99.90
2018-09-18T06:10:17.967Z,99.90
2018-09-18T06:12:47.109Z,99.90
2018-09-18T06:15:16.255Z,99.90
2018-09-18T06:17:45.213Z,99.90
2018-09-18T06:20:14.232Z,99.90
2018-09-18T06:22:43.264Z,99.90
2018-09-18T06:25:13.076Z,99.90
2018-09-18T06:27:42.053Z,99.90
2018-09-18T06:30:11.101Z,99.90
2018-09-18T06:32:40.112Z,99.90
2018-09-18T06:35:09.119Z,99.90
2018-09-18T06:37:38.093Z,99.90
2018-09-18T06:40:07.116Z,99.90
2018-09-18T06:42:36.161Z,99.90
2018-09-18T06:45:05.470Z,99.90
2018-09-18T06:47:34.445Z,99.90
2018-09-18T06:50:03.494Z,99.90
2018-09-18T06:52:32.478Z,99.90
2018-09-18T06:55:01.578Z,99.90
2018-09-18T06:57:30.593Z,99.90
2018-09-18T06:59:59.565Z,99.90
2018-09-18T07:02:28.610Z,99.90
2018-09-18T07:04:57.546Z,99.90
2018-09-18T07:07:26.821Z,99.90
2018-09-18T07:09:55.818Z,99.90
2018-09-18T07:12:24.798Z,99.90
2018-09-18T07:14:53.768Z,99.90
2018-09-18T07:17:22.858Z,99.90
2018-09-18T07:19:51.839Z,99.90
2018-09-18T07:22:20.866Z,99.90
2018-09-18T07:24:49.929Z,99.90
2018-09-18T07:27:18.923Z,99.90
2018-09-18T07:29:47.893Z,99.90
2018-09-18T07:32:16.903Z,99.90
2018-09-18T07:34:46.900Z,99.90
2018-09-18T07:37:15.874Z,99.90
2018-09-18T07:39:44.846Z,99.90
2018-09-18T07:42:13.825Z,99.90
2018-09-18T07:44:42.798Z,99.90
2018-09-18T07:47:11.785Z,99.90
2018-09-18T07:49:40.754Z,99.90
2018-09-18T07:52:09.851Z,99.90
2018-09-18T07:54:38.814Z,99.90
2018-09-18T07:57:07.790Z,99.90
2018-09-18T07:59:36.801Z,99.90
2018-09-18T08:02:05.974Z,99.90
2018-09-18T08:04:34.955Z,99.90
2018-09-18T08:07:05.319Z,99.90
2018-09-18T08:09:34.282Z,99.90
2018-09-18T08:12:03.239Z,99.90
2018-09-18T08:14:32.258Z,99.90
2018-09-18T08:17:01.226Z,99.90
2018-09-18T08:19:31.197Z,99.90
2018-09-18T08:22:00.085Z,99.90
2018-09-18T08:24:29.029Z,99.90
2018-09-18T08:26:58.009Z,99.90
2018-09-18T08:29:26.998Z,99.90
2018-09-18T08:31:55.977Z,99.90
2018-09-18T08:34:24.956Z,99.90
2018-09-18T08:36:53.922Z,99.90
2018-09-18T08:39:22.933Z,99.90
2018-09-18T08:41:51.961Z,99.90
2018-09-18T08:44:20.960Z,99.90
2018-09-18T08:46:49.925Z,99.90
2018-09-18T08:49:18.861Z,99.90
2018-09-18T08:51:47.868Z,99.90
2018-09-18T08:54:16.860Z,99.90
2018-09-18T08:56:45.848Z,99.90
2018-09-18T08:59:14.805Z,99.90
2018-09-18T09:01:43.826Z,99.90
2018-09-18T09:04:12.749Z,99.90
2018-09-18T09:06:41.780Z,99.90
2018-09-18T09:09:13.802Z,99.90
2018-09-18T09:11:43.703Z,99.90
2018-09-18T09:14:12.654Z,99.90
2018-09-18T09:16:42.002Z,99.90
2018-09-18T09:19:11.257Z,99.90
2018-09-18T09:21:40.376Z,99.90
2018-09-18T09:24:09.392Z,99.90
2018-09-18T09:26:38.508Z,99.90
2018-09-18T09:29:07.409Z,99.90
2018-09-18T09:31:36.375Z,99.90
2018-09-18T09:34:05.446Z,99.90
2018-09-18T09:36:34.416Z,99.90
2018-09-18T09:39:04.599Z,99.90
2018-09-18T09:41:33.647Z,99.90
2018-09-18T09:44:02.877Z,99.90
2018-09-18T09:46:31.885Z,99.90
2018-09-18T09:49:00.869Z,99.90
2018-09-18T09:51:29.884Z,99.90
2018-09-18T09:53:58.979Z,99.90
2018-09-18T09:56:28.210Z,99.90
2018-09-18T09:58:57.326Z,99.90
2018-09-18T10:01:31.785Z,99.90
2018-09-18T10:04:00.798Z,99.90
2018-09-18T10:06:29.758Z,99.90
2018-09-18T10:08:58.713Z,99.90
2018-09-18T10:11:27.740Z,99.90
2018-09-18T10:13:56.771Z,99.90
2018-09-18T10:16:25.801Z,99.90
2018-09-18T10:21:26.902Z,99.90
2018-09-18T10:23:56.043Z,99.90
2018-09-18T10:26:25.158Z,99.90
2018-09-18T10:28:54.018Z,99.90
2018-09-18T10:31:22.983Z,99.90
2018-09-18T10:33:52.027Z,99.90
2018-09-18T10:36:21.162Z,99.90
2018-09-18T10:38:50.133Z,99.90
2018-09-18T10:41:19.250Z,99.90
2018-09-18T10:43:48.136Z,99.90
2018-09-18T10:46:17.087Z,99.90
2018-09-18T10:48:51.896Z,99.90
2018-09-18T10:51:21.642Z,99.90
2018-09-18T10:53:50.598Z,99.90
2018-09-18T10:56:19.575Z,99.90
2018-09-18T10:58:48.580Z,99.90
2018-09-18T11:01:17.674Z,99.90
2018-09-18T11:03:46.646Z,99.90
2018-09-18T11:06:15.761Z,99.90
2018-09-18T11:08:44.737Z,99.90
2018-09-18T11:11:13.782Z,99.90
2018-09-18T11:13:42.715Z,99.90
2018-09-18T11:16:11.819Z,99.90
2018-09-18T11:18:40.729Z,99.90
2018-09-18T11:21:09.688Z,99.90
2018-09-18T11:23:38.672Z,99.90
2018-09-18T11:26:08.689Z,99.90
2018-09-18T11:28:37.703Z,99.90
2018-09-18T11:31:06.754Z,99.90
2018-09-18T11:33:35.757Z,99.90
2018-09-18T11:36:04.779Z,99.90
2018-09-18T11:38:33.867Z,99.90
2018-09-18T11:41:02.836Z,99.90
2018-09-18T11:43:31.847Z,99.90
2018-09-18T11:46:01.049Z,99.90
2018-09-18T11:48:30.178Z,99.90
2018-09-18T11:50:59.222Z,99.90
2018-09-18T11:53:28.262Z,99.90
2018-09-18T11:55:57.458Z,99.90
2018-09-18T11:58:26.737Z,99.90
2018-09-18T12:00:55.617Z,99.90
2018-09-18T12:03:24.923Z,99.90
2018-09-18T12:05:54.013Z,99.90
2018-09-18T12:08:23.225Z,99.90
2018-09-18T12:10:52.619Z,99.90
2018-09-18T12:13:21.898Z,99.90
2018-09-18T12:15:50.984Z,99.90
2018-09-18T12:18:19.965Z,99.90
2018-09-18T12:20:49.375Z,99.90
2018-09-18T12:23:18.363Z,99.40
2018-09-18T12:25:47.495Z,98.60
2018-09-18T12:28:16.599Z,98.10
2018-09-18T12:30:45.610Z,97.90
2018-09-18T12:33:14.574Z,97.50
2018-09-18T12:35:43.610Z,96.20
2018-09-18T12:38:12.800Z,93.50
2018-09-18T12:43:17.905Z,93.50
2018-09-18T12:45:46.874Z,92.80
2018-09-18T12:48:15.829Z,92.60
2018-09-18T12:50:44.819Z,92.90
2018-09-18T12:53:13.778Z,92.40
2018-09-18T12:55:42.739Z,92.50
2018-09-18T12:58:11.734Z,92.70
2018-09-18T13:00:40.686Z,92.40
2018-09-18T13:03:09.660Z,92.70
2018-09-18T13:05:38.724Z,92.40
2018-09-18T13:08:07.692Z,91.80
2018-09-18T13:10:37.235Z,91.80
2018-09-18T13:13:06.265Z,91.40
2018-09-18T13:15:35.345Z,91.30
2018-09-18T13:18:04.334Z,91.30
2018-09-18T13:20:33.281Z,91.10
2018-09-18T13:23:02.247Z,90.70
2018-09-18T13:25:31.258Z,91.00
2018-09-18T13:28:00.359Z,91.10
2018-09-18T13:30:29.478Z,91.10
2018-09-18T13:32:58.405Z,91.00
2018-09-18T13:35:27.375Z,90.30
2018-09-18T13:37:56.336Z,90.20
2018-09-18T13:40:25.414Z,90.00
2018-09-18T13:42:54.430Z,90.50
2018-09-18T13:45:23.387Z,89.30
2018-09-18T13:47:52.406Z,89.20
2018-09-18T13:50:21.469Z,87.20
2018-09-18T13:52:50.348Z,86.90
2018-09-18T13:55:19.412Z,84.70
2018-09-18T13:57:48.323Z,85.30
2018-09-18T14:00:17.310Z,85.00
2018-09-18T14:02:46.371Z,84.40
2018-09-18T14:05:15.337Z,83.60
2018-09-18T14:07:44.326Z,83.40
2018-09-18T14:10:14.718Z,83.30
2018-09-18T14:12:43.681Z,82.40
2018-09-18T14:15:12.695Z,82.30
2018-09-18T14:17:41.632Z,79.60
2018-09-18T14:20:10.865Z,81.40
2018-09-18T14:22:39.851Z,81.60
2018-09-18T14:25:08.845Z,81.70
2018-09-18T14:27:37.982Z,82.90
2018-09-18T14:30:07.122Z,83.90
2018-09-18T14:32:36.210Z,83.60
2018-09-18T14:35:05.178Z,84.60
2018-09-18T14:37:34.157Z,84.70
2018-09-18T14:40:03.166Z,85.50
2018-09-18T14:42:32.120Z,86.50
2018-09-18T14:45:01.069Z,84.70
2018-09-18T14:47:30.110Z,85.70
2018-09-18T14:49:59.717Z,86.60
2018-09-18T14:52:28.678Z,86.20
2018-09-18T14:54:57.650Z,86.50
2018-09-18T14:57:26.640Z,86.20
2018-09-18T14:59:55.752Z,87.30
2018-09-18T15:02:24.979Z,87.00
2018-09-18T15:04:53.977Z,88.40
2018-09-18T15:07:23.117Z,87.90
2018-09-18T15:09:52.042Z,88.30
2018-09-18T15:12:21.227Z,87.10
2018-09-18T15:14:50.254Z,88.00
2018-09-18T15:17:19.236Z,87.30
2018-09-18T15:19:48.268Z,88.50
2018-09-18T15:22:17.346Z,88.80
2018-09-18T15:24:46.416Z,88.30
2018-09-18T15:27:17.700Z,88.70
2018-09-18T15:29:46.787Z,88.00
2018-09-18T15:32:15.912Z,87.90
2018-09-18T15:34:45.353Z,87.70
2018-09-18T15:37:14.443Z,88.30
2018-09-18T15:39:44.706Z,88.20
2018-09-18T15:42:13.558Z,89.00
2018-09-18T15:44:42.523Z,90.00
2018-09-18T15:47:11.479Z,90.10
2018-09-18T15:49:54.775Z,89.70
2018-09-18T15:52:23.998Z,90.60
2018-09-18T15:54:53.007Z,89.70
2018-09-18T15:57:22.028Z,88.90
2018-09-18T15:59:50.996Z,89.40
2018-09-18T16:02:20.138Z,89.30
2018-09-18T16:04:49.122Z,88.90
2018-09-18T16:07:18.108Z,88.60
2018-09-18T16:09:47.226Z,89.10
2018-09-18T16:12:16.408Z,90.00
2018-09-18T16:14:45.453Z,90.20
2018-09-18T16:17:14.864Z,90.40
2018-09-18T16:19:43.870Z,91.20
2018-09-18T16:22:12.927Z,90.40
2018-09-18T16:24:41.943Z,90.00
2018-09-18T16:27:11.137Z,88.70
2018-09-18T16:29:40.309Z,90.20
2018-09-18T16:32:09.401Z,90.50
2018-09-18T16:34:38.692Z,90.60
2018-09-18T16:37:07.930Z,91.30
2018-09-18T16:39:36.970Z,92.30
2018-09-18T16:42:06.062Z,93.40
2018-09-18T16:44:35.030Z,92.10
2018-09-18T16:47:05.282Z,92.70
2018-09-18T16:49:34.294Z,92.80
2018-09-18T16:52:03.908Z,92.10
2018-09-18T16:54:33.052Z,92.90
2018-09-18T16:57:01.963Z,92.30
2018-09-18T16:59:30.958Z,92.80
2018-09-18T17:02:00.120Z,93.70
2018-09-18T17:04:29.135Z,92.80
2018-09-18T17:06:58.085Z,92.60
2018-09-18T17:09:27.079Z,93.90
2018-09-18T17:11:56.068Z,94.30
2018-09-18T17:14:25.117Z,93.90
2018-09-18T17:16:54.099Z,93.50
2018-09-18T17:19:23.146Z,95.70
2018-09-18T17:21:52.126Z,95.60
2018-09-18T17:24:21.156Z,94.90
2018-09-18T17:26:50.223Z,95.10
2018-09-18T17:29:19.256Z,96.00
2018-09-18T17:31:48.567Z,95.10
2018-09-18T17:34:17.607Z,95.80
2018-09-18T17:36:46.698Z,97.00
2018-09-18T17:39:15.913Z,97.60
2018-09-18T17:41:45.166Z,97.00
2018-09-18T17:44:15.339Z,98.20
2018-09-18T17:46:45.117Z,98.10
2018-09-18T17:49:15.262Z,98.80
2018-09-18T17:51:45.277Z,98.20
2018-09-18T17:54:14.403Z,97.40
2018-09-18T17:56:45.005Z,97.80
2018-09-18T17:59:16.568Z,98.40
2018-09-18T18:01:45.630Z,99.00
2018-09-18T18:04:14.614Z,98.70
2018-09-18T18:06:43.706Z,99.20
2018-09-18T18:09:12.706Z,98.90
2018-09-18T18:11:41.935Z,99.50
2018-09-18T18:14:11.042Z,99.90
2018-09-18T18:16:40.047Z,99.50
2018-09-18T18:19:09.903Z,99.40
2018-09-18T18:21:38.854Z,99.60
2018-09-18T18:24:08.221Z,99.80
2018-09-18T18:26:37.243Z,99.90
2018-09-18T18:29:06.364Z,99.90
2018-09-18T18:31:35.315Z,99.90
2018-09-18T18:34:04.311Z,99.90
2018-09-18T18:36:33.579Z,99.90
2018-09-18T18:39:02.779Z,99.90
2018-09-18T18:41:32.341Z,99.90
2018-09-18T18:44:01.263Z,99.90
2018-09-18T18:46:30.278Z,99.90
2018-09-18T18:48:59.274Z,99.90
2018-09-18T18:51:28.241Z,99.90
2018-09-18T18:53:57.558Z,99.90
2018-09-18T18:56:27.151Z,99.90
2018-09-18T18:58:56.244Z,99.90
2018-09-18T19:01:25.233Z,99.90
2018-09-18T19:03:54.277Z,99.90
2018-09-18T19:06:23.363Z,99.90
2018-09-18T19:08:52.304Z,99.90
2018-09-18T19:11:21.797Z,99.90
2018-09-18T19:13:50.854Z,99.90
2018-09-18T19:16:20.457Z,99.90
2018-09-18T19:18:49.510Z,99.90
2018-09-18T19:21:18.598Z,99.90
2018-09-18T19:23:47.662Z,99.90
2018-09-18T19:26:16.599Z,99.90
2018-09-18T19:28:45.554Z,99.90
2018-09-18T19:31:14.839Z,99.90
2018-09-18T19:33:43.861Z,99.90
2018-09-18T19:36:12.840Z,99.90
2018-09-18T19:38:41.900Z,99.90
2018-09-18T19:41:10.883Z,99.90
2018-09-18T19:43:39.956Z,99.90
2018-09-18T19:46:08.925Z,99.90
2018-09-18T19:48:38.255Z,99.90
2018-09-18T19:51:07.231Z,99.90
2018-09-18T19:53:36.181Z,99.90
2018-09-18T19:56:05.253Z,99.90
2018-09-18T19:58:34.795Z,99.90
2018-09-18T20:01:03.750Z,99.90
2018-09-18T20:03:32.765Z,99.90
2018-09-18T20:06:01.769Z,99.90
2018-09-18T20:08:30.733Z,99.90
2018-09-18T20:10:59.775Z,99.90
2018-09-18T20:13:28.803Z,99.90
2018-09-18T20:15:57.793Z,99.90
2018-09-18T20:18:26.773Z,99.90
2018-09-18T20:20:55.996Z,99.90
2018-09-18T20:23:25.162Z,99.90
2018-09-18T20:25:54.126Z,99.90
2018-09-18T20:28:23.081Z,99.90
2018-09-18T20:30:52.038Z,99.90
2018-09-18T20:33:21.347Z,99.90
2018-09-18T20:35:50.355Z,99.90
2018-09-18T20:38:19.470Z,99.90
2018-09-18T20:40:48.538Z,99.90
2018-09-18T20:43:17.573Z,99.90
2018-09-18T20:45:47.134Z,99.90
2018-09-18T20:48:16.224Z,99.90
2018-09-18T20:50:45.271Z,99.90
2018-09-18T20:53:14.407Z,99.90
2018-09-18T20:55:43.528Z,99.90
2018-09-18T20:58:12.521Z,99.90
2018-09-18T21:00:41.623Z,99.90
2018-09-18T21:03:10.693Z,99.90
2018-09-18T21:05:39.697Z,99.90
2018-09-18T21:08:08.659Z,99.90
2018-09-18T21:10:37.981Z,99.90
2018-09-18T21:13:06.931Z,99.90
2018-09-18T21:15:35.896Z,99.90
2018-09-18T21:18:04.882Z,99.90
2018-09-18T21:20:33.865Z,99.90
2018-09-18T21:23:02.942Z,99.90
2018-09-18T21:25:57.029Z,99.90
2018-09-18T21:28:26.068Z,99.90
2018-09-18T21:30:55.054Z,99.90
2018-09-18T21:33:24.182Z,99.90
2018-09-18T21:35:53.147Z,99.90
2018-09-18T21:38:22.099Z,99.90
2018-09-18T21:40:51.171Z,99.90
2018-09-18T21:43:20.173Z,99.90
2018-09-18T21:45:49.457Z,99.90
2018-09-18T21:48:18.530Z,99.90
2018-09-18T21:50:47.479Z,99.90
2018-09-18T21:53:16.508Z,99.90
2018-09-18T21:55:45.980Z,99.90
2018-09-18T21:58:15.009Z,99.90
2018-09-18T22:00:44.138Z,99.90
2018-09-18T22:03:13.145Z,99.90
2018-09-18T22:05:42.094Z,99.90
2018-09-18T22:08:11.989Z,99.90
2018-09-18T22:10:40.979Z,99.90
2018-09-18T22:13:09.989Z,99.90
2018-09-18T22:15:39.195Z,99.90
2018-09-18T22:18:08.279Z,99.90
2018-09-18T22:20:37.383Z,99.90
2018-09-18T22:23:06.340Z,99.90
2018-09-18T22:25:35.378Z,99.90
2018-09-18T22:28:04.345Z,99.90
2018-09-18T22:30:33.391Z,99.90
2018-09-18T22:33:02.415Z,99.90
2018-09-18T22:35:31.415Z,99.90
2018-09-18T22:38:00.372Z,99.90
2018-09-18T22:40:29.350Z,99.90
2018-09-18T22:42:58.452Z,99.90
2018-09-18T22:45:27.397Z,99.90
2018-09-18T22:47:56.435Z,99.90
2018-09-18T22:50:25.619Z,99.90
2018-09-18T22:52:54.608Z,99.90
2018-09-18T22:55:23.661Z,99.90
2018-09-18T22:57:52.650Z,99.90
2018-09-18T23:00:21.650Z,99.90
2018-09-18T23:02:50.636Z,99.90
2018-09-18T23:05:19.584Z,99.90
2018-09-18T23:07:48.672Z,99.90
2018-09-18T23:10:17.626Z,99.90
2018-09-18T23:12:46.602Z,99.90
2018-09-18T23:15:15.967Z,99.90
2018-09-18T23:17:45.157Z,99.90
2018-09-18T23:20:14.117Z,99.90
2018-09-18T23:22:43.135Z,99.90
2018-09-18T23:25:12.219Z,99.90
2018-09-18T23:27:41.181Z,99.90
2018-09-18T23:30:10.187Z,99.90
2018-09-18T23:32:39.177Z,99.90
2018-09-18T23:35:08.199Z,99.90
2018-09-18T23:37:37.158Z,99.90
2018-09-18T23:40:07.093Z,99.90
2018-09-18T23:42:36.147Z,99.90
2018-09-18T23:45:05.126Z,99.90
2018-09-18T23:47:34.107Z,99.90
2018-09-18T23:50:03.266Z,99.90
2018-09-18T23:52:32.263Z,99.90
2018-09-18T23:55:01.232Z,99.90
2018-09-18T23:57:30.193Z,99.90
2018-09-18T23:59:59.209Z,99.90
